Portada
METAR-TAF:

METAR-TAF

Aeropuertos :

Yap, Yap Island, Micronesia

Aeropuerto Internacional de Yap

latitud: 09-29N, longitud: 138-05E, altitud: 28 m

Observación

El informe se hizo hace 9 minutos, a las 12:53 UTC
Viento 6 kt con dirección variable
Temperatura 28°C
Humedad 84%
Presión 1014 hPa
Visibilidad: 19.3 km
Escasas nubes a una altura de 1600 ft
Nubes dispersas a una altura de 13000 ft
Cielo nuboso a una altura de 30000 ft

METAR: PTYA 261253Z VRB06KT 12SM FEW016 SCT130 BKN300 28/25 A2993 RMK SLP137 T02780248

Hora: 23:02 (13:02 UTC)

Pronóstico

El informe se hizo hace 1 hora y 31 minutos, a las 11:31 UTC
Pronóstico válido del 26 a las 12 UTC al 27 a las 12 UTC
Viento 10 kt del este-noreste
Visibilidad: 10 km
Nubes dispersas a una altura de 1600 ft
Nubes dispersas a una altura de 13000 ft
chaparrones en las proximidades

TAF: PTYA 261131Z 2612/2712 07010KT P6SM VCSH SCT016 SCT130

Observaciones y pronósticos meteorológicos de más de 4000 aeropuertos (mensajes METAR y TAF).

Los puntos amarillos y rojos representan las estaciones disponibles.

Ponga el ratón en el punto deseado para ver el nombre de la estación.

Haga clic para ver las observaciones y los pronósticos meteorológicos.

Para cambiar el mapa : haga clic en los botones verdes con una cruz de color negro para hacer un zoom, en el botón verde con un guión para alejar o en las flechas verdes para mapas adyacentes.


METAR-TAF: